createdAt,value
2017-12-17T10:55:15.542Z,23.63
2017-12-17T10:56:15.517Z,24.68
2017-12-17T10:57:15.497Z,25.04
2017-12-17T10:58:15.468Z,25.29
2017-12-17T10:59:15.446Z,25.44
2017-12-17T11:00:15.425Z,25.46
2017-12-17T11:01:15.402Z,25.48
2017-12-17T11:02:15.382Z,25.60
2017-12-17T11:03:15.361Z,25.54
2017-12-17T11:04:15.341Z,25.58
2017-12-17T11:05:15.319Z,25.55
2017-12-17T11:06:15.300Z,25.54
2017-12-17T11:07:15.281Z,25.63
2017-12-17T11:08:15.262Z,25.50
2017-12-17T11:09:15.242Z,25.53
2017-12-17T11:10:15.225Z,25.53
2017-12-17T11:11:15.202Z,25.59
2017-12-17T11:12:15.182Z,25.55
2017-12-17T11:13:15.162Z,25.55
2017-12-17T11:14:15.146Z,25.58
2017-12-17T11:15:15.126Z,25.63
2017-12-17T11:16:15.105Z,25.65
2017-12-17T11:17:15.087Z,25.63
2017-12-17T11:18:15.067Z,25.68
2017-12-17T11:19:15.049Z,25.68
2017-12-17T11:20:15.031Z,25.65
2017-12-17T11:21:15.011Z,25.66
2017-12-17T11:22:14.992Z,25.72
2017-12-17T11:23:14.979Z,25.80
2017-12-17T11:24:14.956Z,25.80
2017-12-17T11:25:14.935Z,25.84
2017-12-17T11:26:14.917Z,25.91
2017-12-17T11:27:14.961Z,25.96
2017-12-17T11:28:14.882Z,26.00
2017-12-17T11:29:14.861Z,26.02
2017-12-17T11:30:14.843Z,26.03
2017-12-17T11:31:14.831Z,26.15
2017-12-17T11:32:14.806Z,26.10
2017-12-17T11:33:14.788Z,26.21
2017-12-17T11:34:14.770Z,26.15
2017-12-17T11:35:14.753Z,26.25
2017-12-17T11:36:14.734Z,26.25
2017-12-17T11:37:14.715Z,26.29
2017-12-17T11:38:14.696Z,26.34
2017-12-17T11:39:14.679Z,26.38
2017-12-17T11:40:14.665Z,26.38
2017-12-17T11:41:14.642Z,26.31
2017-12-17T11:42:14.624Z,26.38
2017-12-17T11:43:14.605Z,26.41
2017-12-17T11:44:14.588Z,26.52
2017-12-17T11:45:14.568Z,26.52
2017-12-17T11:46:14.550Z,26.56
2017-12-17T11:47:14.538Z,26.59
2017-12-17T11:48:14.514Z,26.71
2017-12-17T11:49:14.496Z,26.71
2017-12-17T11:50:14.477Z,26.59
2017-12-17T11:51:14.462Z,26.71
2017-12-17T11:52:14.442Z,26.75
2017-12-17T11:53:14.424Z,26.71
2017-12-17T11:54:14.406Z,26.75
2017-12-17T11:55:14.389Z,26.74
2017-12-17T11:56:14.370Z,26.77
2017-12-17T11:57:14.352Z,26.75
2017-12-17T11:58:14.334Z,26.75
2017-12-17T11:59:14.317Z,26.73
2017-12-17T12:00:14.299Z,26.68
2017-12-17T12:01:14.280Z,26.66
2017-12-17T12:02:14.262Z,26.63
2017-12-17T12:03:14.244Z,26.59
2017-12-17T12:04:14.227Z,26.68
2017-12-17T12:05:14.208Z,26.55
2017-12-17T12:06:14.190Z,26.60
2017-12-17T12:07:14.174Z,26.53
2017-12-17T12:08:14.155Z,26.60
2017-12-17T12:09:14.136Z,26.59
2017-12-17T12:10:14.119Z,26.51
2017-12-17T12:11:14.101Z,26.47
2017-12-17T12:12:14.084Z,26.47
2017-12-17T12:13:14.066Z,26.52
2017-12-17T12:14:14.047Z,26.40
2017-12-17T12:15:14.029Z,26.53
2017-12-17T12:16:14.011Z,26.36
2017-12-17T12:17:13.992Z,26.37
2017-12-17T12:18:13.974Z,26.41
2017-12-17T12:19:13.956Z,26.37
2017-12-17T12:20:13.938Z,26.38
2017-12-17T12:21:13.924Z,26.37
2017-12-17T12:22:13.904Z,26.29
2017-12-17T12:23:13.884Z,26.28
2017-12-17T12:24:13.866Z,26.29
2017-12-17T12:25:13.846Z,26.23
2017-12-17T12:26:13.830Z,26.19
2017-12-17T12:27:13.809Z,26.13
2017-12-17T12:28:13.792Z,26.09
2017-12-17T12:29:13.773Z,26.18
2017-12-17T12:30:13.760Z,26.13
2017-12-17T12:31:13.737Z,26.09
2017-12-17T12:32:13.718Z,26.02
2017-12-17T12:33:13.699Z,26.05
2017-12-17T12:34:13.681Z,25.98
2017-12-17T12:35:13.663Z,26.00
2017-12-17T12:36:13.648Z,25.95
2017-12-17T12:37:13.626Z,25.93
2017-12-17T12:38:13.607Z,25.93
2017-12-17T12:39:13.589Z,25.87
2017-12-17T12:40:13.573Z,25.90
2017-12-17T12:41:13.551Z,25.85
2017-12-17T12:42:13.533Z,25.90
2017-12-17T12:43:13.515Z,25.87
2017-12-17T12:44:13.497Z,25.87
2017-12-17T12:45:13.478Z,25.78
2017-12-17T12:46:13.459Z,25.80
2017-12-17T12:47:13.441Z,25.83
2017-12-17T12:48:13.422Z,25.81
2017-12-17T12:49:13.445Z,25.81
2017-12-17T12:50:13.386Z,25.81
2017-12-17T12:51:13.373Z,25.83
2017-12-17T12:52:13.348Z,25.77
2017-12-17T12:53:13.331Z,25.83
2017-12-17T12:54:13.311Z,25.80
2017-12-17T12:55:13.292Z,25.77
2017-12-17T12:56:13.276Z,25.73
2017-12-17T12:57:13.258Z,25.80
2017-12-17T12:58:13.245Z,25.77
2017-12-17T12:59:13.220Z,25.75
2017-12-17T13:00:13.203Z,25.73
2017-12-17T13:01:13.185Z,25.75
2017-12-17T13:02:13.168Z,25.72
2017-12-17T13:03:13.149Z,25.77
2017-12-17T13:04:13.131Z,25.70
2017-12-17T13:05:13.114Z,25.62
2017-12-17T13:06:13.095Z,25.66
2017-12-17T13:07:13.079Z,25.70
2017-12-17T13:08:13.066Z,25.66
2017-12-17T13:09:13.041Z,25.68
2017-12-17T13:10:13.023Z,25.66
2017-12-17T13:11:13.006Z,25.70
2017-12-17T13:12:12.989Z,25.65
2017-12-17T13:13:12.970Z,25.63
2017-12-17T13:14:12.951Z,25.58
2017-12-17T13:15:12.958Z,25.46
2017-12-17T13:16:12.916Z,25.55
2017-12-17T13:17:12.898Z,25.47
2017-12-17T13:18:12.880Z,25.46
2017-12-17T13:19:12.863Z,25.50
2017-12-17T13:20:12.844Z,25.35
2017-12-17T13:21:12.826Z,25.33
2017-12-17T13:22:12.808Z,25.26
2017-12-17T13:23:12.789Z,25.18
2017-12-17T13:24:12.772Z,25.29
2017-12-17T13:25:12.752Z,25.21
2017-12-17T13:26:12.736Z,25.10
2017-12-17T13:27:12.716Z,25.03
2017-12-17T13:28:12.698Z,24.99
2017-12-17T13:29:12.682Z,24.91
2017-12-17T13:30:12.664Z,24.98
2017-12-17T13:31:12.646Z,25.04
2017-12-17T13:32:12.626Z,24.96
2017-12-17T13:33:12.608Z,25.03
2017-12-17T13:34:12.590Z,24.84
2017-12-17T13:35:12.572Z,24.81
2017-12-17T13:36:12.554Z,24.91
2017-12-17T13:37:12.535Z,24.73
2017-12-17T13:38:12.518Z,24.80
2017-12-17T13:39:12.502Z,24.53
2017-12-17T13:40:12.489Z,24.57
2017-12-17T13:41:12.462Z,24.40
2017-12-17T13:42:12.446Z,24.36
2017-12-17T13:43:12.427Z,24.38
2017-12-17T13:44:12.409Z,24.23
2017-12-17T13:45:12.392Z,24.16
2017-12-17T13:46:12.373Z,24.05
2017-12-17T13:47:12.355Z,24.05
2017-12-17T13:48:12.338Z,23.99
2017-12-17T13:49:12.319Z,23.91
2017-12-17T13:50:12.301Z,23.87
2017-12-17T13:51:12.282Z,23.77
2017-12-17T13:52:12.266Z,23.71
2017-12-17T13:53:12.245Z,23.71
2017-12-17T13:54:12.228Z,23.62
2017-12-17T13:55:12.210Z,23.58
2017-12-17T13:56:12.191Z,23.56
2017-12-17T13:57:12.173Z,23.50
2017-12-17T13:58:12.155Z,23.47
2017-12-17T13:59:12.136Z,23.46
2017-12-17T14:00:12.118Z,23.50
2017-12-17T14:01:12.214Z,23.39
2017-12-17T14:02:12.079Z,23.39
2017-12-17T14:03:12.062Z,23.36
2017-12-17T14:04:12.043Z,23.37
2017-12-17T14:05:12.024Z,23.36
2017-12-17T14:06:12.006Z,23.28
2017-12-17T14:07:11.987Z,23.18
2017-12-17T14:08:11.968Z,23.12
2017-12-17T14:09:11.949Z,23.08
2017-12-17T14:10:11.930Z,23.20
2017-12-17T14:11:11.911Z,23.17
2017-12-17T14:12:11.892Z,23.12
2017-12-17T14:13:11.872Z,23.09
2017-12-17T14:14:11.853Z,23.25
2017-12-17T14:15:11.834Z,23.34
2017-12-17T14:16:11.815Z,23.24
2017-12-17T14:17:11.795Z,23.18
2017-12-17T14:18:11.777Z,23.24
2017-12-17T14:19:11.760Z,23.20
2017-12-17T14:20:11.738Z,22.99
2017-12-17T14:21:11.717Z,23.05
2017-12-17T14:22:11.698Z,23.10
2017-12-17T14:23:11.679Z,23.25
2017-12-17T14:24:11.660Z,23.10
2017-12-17T14:25:11.639Z,23.06
2017-12-17T14:26:11.620Z,23.05
2017-12-17T14:27:11.601Z,23.06
2017-12-17T14:28:11.582Z,23.24
2017-12-17T14:29:11.561Z,23.09
2017-12-17T14:30:11.543Z,23.05
2017-12-17T14:31:11.522Z,23.08
2017-12-17T14:32:11.503Z,23.03
2017-12-17T14:33:11.484Z,23.12
2017-12-17T14:34:11.464Z,23.15
2017-12-17T14:35:11.444Z,23.06
2017-12-17T14:36:11.425Z,23.03
2017-12-17T14:37:11.405Z,23.05
2017-12-17T14:38:11.384Z,23.17
2017-12-17T14:39:11.365Z,23.02
2017-12-17T14:40:11.347Z,22.93
2017-12-17T14:41:11.325Z,22.94
2017-12-17T14:42:11.305Z,22.93
2017-12-17T14:43:11.286Z,23.06
2017-12-17T14:44:11.266Z,22.81
2017-12-17T14:45:11.246Z,22.72
2017-12-17T14:46:11.226Z,22.83
2017-12-17T14:47:11.205Z,22.84
2017-12-17T14:48:11.186Z,22.80
2017-12-17T14:49:11.165Z,22.69
2017-12-17T14:50:11.148Z,22.70
2017-12-17T14:51:11.126Z,22.59
2017-12-17T14:52:11.105Z,22.60
2017-12-17T14:53:11.084Z,22.66
2017-12-17T14:54:11.065Z,22.80
2017-12-17T14:55:11.044Z,22.66
2017-12-17T14:56:11.027Z,22.75
2017-12-17T14:57:11.008Z,22.65
2017-12-17T14:58:10.983Z,22.73
2017-12-17T14:59:10.963Z,22.69
2017-12-17T15:00:10.943Z,22.62
2017-12-17T15:01:10.921Z,22.63
2017-12-17T15:02:10.900Z,22.50
2017-12-17T15:03:10.882Z,22.55
2017-12-17T15:04:10.874Z,22.50
2017-12-17T15:05:10.839Z,22.53
2017-12-17T15:06:10.819Z,22.53
2017-12-17T15:07:10.797Z,22.47
2017-12-17T15:08:10.777Z,22.38
2017-12-17T15:09:10.756Z,22.41
2017-12-17T15:10:10.736Z,22.36
2017-12-17T15:11:10.715Z,22.41
2017-12-17T15:12:10.694Z,22.41
2017-12-17T15:13:10.673Z,22.30
2017-12-17T15:14:10.652Z,22.30
2017-12-17T15:15:10.632Z,22.26
2017-12-17T15:16:10.610Z,22.25
2017-12-17T15:17:10.588Z,22.18
2017-12-17T15:18:10.571Z,22.13
2017-12-17T15:19:10.548Z,22.10
2017-12-17T15:20:10.526Z,22.10
2017-12-17T15:21:10.508Z,22.14
2017-12-17T15:22:10.484Z,22.13
2017-12-17T15:23:10.464Z,22.08
2017-12-17T15:24:10.445Z,22.11
2017-12-17T15:25:10.420Z,22.15
2017-12-17T15:26:10.399Z,22.10
2017-12-17T15:27:10.378Z,22.07
2017-12-17T15:29:10.359Z,22.07
2017-12-17T15:30:10.346Z,22.10
2017-12-17T15:31:10.311Z,22.14
2017-12-17T15:32:10.274Z,22.07
2017-12-17T15:33:10.249Z,22.15
2017-12-17T15:34:10.227Z,22.10
2017-12-17T15:35:10.206Z,22.15
2017-12-17T15:36:10.185Z,22.02
2017-12-17T15:37:10.162Z,22.07
2017-12-17T15:38:10.142Z,22.06
2017-12-17T15:39:10.120Z,22.08
2017-12-17T15:40:10.098Z,22.07
2017-12-17T15:41:10.077Z,22.06
2017-12-17T15:42:10.054Z,22.06
2017-12-17T15:43:10.034Z,22.11
2017-12-17T15:44:10.012Z,22.00
2017-12-17T15:45:09.992Z,21.93
2017-12-17T15:46:09.969Z,22.11
2017-12-17T15:47:09.946Z,22.02
2017-12-17T15:48:09.926Z,22.08
2017-12-17T15:49:09.902Z,22.04
2017-12-17T15:50:09.881Z,22.04
2017-12-17T15:51:09.860Z,22.07
2017-12-17T15:52:09.839Z,21.99
2017-12-17T15:53:09.816Z,22.06
2017-12-17T15:54:09.862Z,22.10
2017-12-17T15:55:09.775Z,22.02
2017-12-17T15:56:09.755Z,21.99
2017-12-17T15:57:09.728Z,22.06
2017-12-17T15:58:09.712Z,21.96
2017-12-17T15:59:09.686Z,21.98
2017-12-17T16:00:09.665Z,21.99
2017-12-17T16:01:09.643Z,22.06
2017-12-17T16:02:09.621Z,21.91
2017-12-17T16:03:09.599Z,21.96
2017-12-17T16:04:09.579Z,21.96
2017-12-17T16:05:09.558Z,21.95
2017-12-17T16:06:09.535Z,22.00
2017-12-17T16:07:09.514Z,21.96
2017-12-17T16:08:09.491Z,22.07
2017-12-17T16:09:09.472Z,21.93
2017-12-17T16:10:09.448Z,22.07
2017-12-17T16:11:09.426Z,21.99
2017-12-17T16:12:09.406Z,21.96
2017-12-17T16:13:09.383Z,21.93
2017-12-17T16:14:09.361Z,21.98
2017-12-17T16:15:09.340Z,21.92
2017-12-17T16:16:09.318Z,22.10
2017-12-17T16:17:09.295Z,21.93
2017-12-17T16:18:09.275Z,21.98
2017-12-17T16:19:09.253Z,21.96
2017-12-17T16:20:09.231Z,21.92
2017-12-17T16:21:09.210Z,21.88
2017-12-17T16:22:09.191Z,21.92
2017-12-17T16:23:09.166Z,21.93
2017-12-17T16:24:09.146Z,22.06
2017-12-17T16:25:09.122Z,22.07
2017-12-17T16:26:09.102Z,21.93
2017-12-17T16:27:09.080Z,21.96
2017-12-17T16:28:09.059Z,22.00
2017-12-17T16:29:09.036Z,22.11
2017-12-17T16:30:09.014Z,22.06
2017-12-17T16:31:08.994Z,21.93
2017-12-17T16:32:08.972Z,22.02
2017-12-17T16:33:08.951Z,22.04
2017-12-17T16:34:08.929Z,22.02
2017-12-17T16:35:08.906Z,21.92
2017-12-17T16:36:08.885Z,22.04
2017-12-17T16:37:08.862Z,21.98
2017-12-17T16:38:08.841Z,21.85
2017-12-17T16:39:08.819Z,21.89
2017-12-17T16:40:08.799Z,21.95
2017-12-17T16:41:08.777Z,21.82
2017-12-17T16:42:08.755Z,21.80
2017-12-17T16:43:08.735Z,21.92
2017-12-17T16:44:08.711Z,21.89
2017-12-17T16:45:08.690Z,22.00
2017-12-17T16:46:08.667Z,21.89
2017-12-17T16:47:08.646Z,21.92
2017-12-17T16:48:08.626Z,21.76
2017-12-17T16:49:08.602Z,21.91
2017-12-17T16:50:08.581Z,21.82
2017-12-17T16:51:08.561Z,21.76
2017-12-17T16:52:08.538Z,21.85
2017-12-17T16:53:08.520Z,21.69
2017-12-17T16:54:08.495Z,21.77
2017-12-17T16:55:08.473Z,21.88
2017-12-17T16:56:08.452Z,21.80
2017-12-17T16:57:08.430Z,21.88
2017-12-17T16:58:08.408Z,21.77
2017-12-17T16:59:08.390Z,21.95
2017-12-17T17:00:08.366Z,21.99
2017-12-17T17:01:08.343Z,22.07
2017-12-17T17:02:08.323Z,21.96
2017-12-17T17:03:08.300Z,22.00
2017-12-17T17:04:08.277Z,22.13
2017-12-17T17:05:08.257Z,22.13
2017-12-17T17:06:08.234Z,22.00
2017-12-17T17:07:08.214Z,21.95
2017-12-17T17:08:08.191Z,21.89
2017-12-17T17:09:08.171Z,22.06
2017-12-17T17:10:08.149Z,22.06
2017-12-17T17:11:08.127Z,22.07
2017-12-17T17:12:08.106Z,22.23
2017-12-17T17:13:08.084Z,22.17
2017-12-17T17:14:08.063Z,22.14
2017-12-17T17:15:08.041Z,22.15
2017-12-17T17:16:08.020Z,22.07
2017-12-17T17:17:07.997Z,22.17
2017-12-17T17:18:07.977Z,22.11
2017-12-17T17:19:07.957Z,22.18
2017-12-17T17:20:07.937Z,22.18
2017-12-17T17:21:07.910Z,22.33
2017-12-17T17:22:07.890Z,22.30
2017-12-17T17:23:07.868Z,22.26
2017-12-17T17:24:07.848Z,22.26
2017-12-17T17:25:07.824Z,22.28
2017-12-17T17:26:07.805Z,22.30
2017-12-17T17:27:07.782Z,22.28
2017-12-17T17:28:07.761Z,22.28
2017-12-17T17:29:07.738Z,22.29
2017-12-17T17:30:07.717Z,22.30
2017-12-17T17:31:07.698Z,22.36
2017-12-17T17:32:07.676Z,22.28
2017-12-17T17:33:07.652Z,22.25
2017-12-17T17:34:07.631Z,22.20
2017-12-17T17:35:07.610Z,22.18
2017-12-17T17:36:07.590Z,22.14
2017-12-17T17:37:07.567Z,22.32
2017-12-17T17:38:07.547Z,22.17
2017-12-17T17:39:07.529Z,22.23
2017-12-17T17:40:07.505Z,22.22
2017-12-17T17:41:07.482Z,22.25
2017-12-17T17:42:07.462Z,22.17
2017-12-17T17:43:07.438Z,22.11
2017-12-17T17:44:07.419Z,22.14
2017-12-17T17:45:07.402Z,22.14
2017-12-17T17:46:07.375Z,22.17
2017-12-17T17:47:07.352Z,22.17
2017-12-17T17:48:07.332Z,22.11
2017-12-17T17:49:07.316Z,22.07
2017-12-17T17:50:07.289Z,22.11
2017-12-17T17:51:07.267Z,22.07
2017-12-17T17:52:07.246Z,22.14
2017-12-17T17:53:07.224Z,22.11
2017-12-17T17:54:07.202Z,22.17
2017-12-17T17:55:07.181Z,22.17
2017-12-17T17:56:07.162Z,22.11
2017-12-17T17:57:07.137Z,22.11
2017-12-17T17:58:07.116Z,22.07
2017-12-17T17:59:07.094Z,22.11
2017-12-17T18:00:07.074Z,22.07
2017-12-17T18:01:07.051Z,22.06
2017-12-17T18:02:07.030Z,22.04
2017-12-17T18:03:07.008Z,22.07
2017-12-17T18:04:06.987Z,22.13
2017-12-17T18:05:06.965Z,22.07
2017-12-17T18:06:06.942Z,22.14
2017-12-17T18:07:06.922Z,22.13
2017-12-17T18:08:06.901Z,22.04
2017-12-17T18:09:06.878Z,21.93
2017-12-17T18:10:06.856Z,21.93
2017-12-17T18:11:06.842Z,21.93
2017-12-17T18:12:06.813Z,22.00
2017-12-17T18:13:06.791Z,21.99
2017-12-17T18:14:06.771Z,22.08
2017-12-17T18:15:06.787Z,22.10
2017-12-17T18:16:06.728Z,22.07
2017-12-17T18:17:06.705Z,22.06
2017-12-17T18:18:06.685Z,22.04
2017-12-17T18:19:06.664Z,22.15
2017-12-17T18:20:06.643Z,22.07
2017-12-17T18:21:06.620Z,22.07
2017-12-17T18:22:06.603Z,22.04
2017-12-17T18:23:06.577Z,22.08
2017-12-17T18:24:06.558Z,22.11
2017-12-17T18:25:06.534Z,22.07
2017-12-17T18:26:06.511Z,22.11
2017-12-17T18:27:06.491Z,22.11
2017-12-17T18:28:06.470Z,22.11
2017-12-17T18:29:06.446Z,22.06
2017-12-17T18:30:06.426Z,22.11
2017-12-17T18:31:06.405Z,22.06
2017-12-17T18:32:06.385Z,22.07
2017-12-17T18:33:06.365Z,22.08
2017-12-17T18:34:06.347Z,22.13
2017-12-17T18:35:06.318Z,22.06
2017-12-17T18:36:06.297Z,22.11
2017-12-17T18:37:06.274Z,22.07
2017-12-17T18:38:06.253Z,22.00
2017-12-17T18:39:06.233Z,22.00
2017-12-17T18:40:06.211Z,21.91
2017-12-17T18:41:06.189Z,21.96
2017-12-17T18:42:06.169Z,21.99
2017-12-17T18:43:06.146Z,21.98
2017-12-17T18:44:06.127Z,21.96
2017-12-17T18:45:06.103Z,21.95
2017-12-17T18:46:06.080Z,21.95
2017-12-17T18:47:06.059Z,21.98
2017-12-17T18:48:06.037Z,21.92
2017-12-17T18:49:06.017Z,21.89
2017-12-17T18:50:05.997Z,21.85
2017-12-17T18:51:05.973Z,21.95
2017-12-17T18:52:05.951Z,21.93
2017-12-17T18:53:05.930Z,21.75
2017-12-17T18:54:05.908Z,21.77
2017-12-17T18:55:05.886Z,21.89
2017-12-17T18:56:05.865Z,21.91
2017-12-17T18:57:05.842Z,21.92
2017-12-17T18:58:05.821Z,21.76
2017-12-17T18:59:05.800Z,21.77
2017-12-17T19:00:05.778Z,21.80
2017-12-17T19:01:05.756Z,21.77
2017-12-17T19:02:05.737Z,21.77
2017-12-17T19:03:05.713Z,21.76
2017-12-17T19:04:05.691Z,21.76
2017-12-17T19:05:05.671Z,21.77
2017-12-17T19:06:05.647Z,21.75
2017-12-17T19:07:05.625Z,21.91
2017-12-17T19:08:05.605Z,21.77
2017-12-17T19:09:05.583Z,21.76
2017-12-17T19:10:05.564Z,21.77
2017-12-17T19:11:05.539Z,21.79
2017-12-17T19:12:05.518Z,21.70
2017-12-17T19:13:05.495Z,21.70
2017-12-17T19:14:05.473Z,21.80
2017-12-17T19:15:05.453Z,21.70
2017-12-17T19:16:05.431Z,21.66
2017-12-17T19:17:05.409Z,21.67
2017-12-17T19:18:05.389Z,21.67
2017-12-17T19:19:05.365Z,21.70
2017-12-17T19:20:05.345Z,21.72
2017-12-17T19:21:05.322Z,21.76
2017-12-17T19:22:05.300Z,21.72
2017-12-17T19:23:05.278Z,21.77
2017-12-17T19:24:05.257Z,21.82
2017-12-17T19:25:05.234Z,21.82
2017-12-17T19:26:05.213Z,21.76
2017-12-17T19:27:05.191Z,21.80
2017-12-17T19:28:05.170Z,21.82
2017-12-17T19:29:05.148Z,21.92
2017-12-17T19:30:05.128Z,21.93
2017-12-17T19:31:05.105Z,21.91
2017-12-17T19:32:05.086Z,21.96
2017-12-17T19:33:05.061Z,21.91
2017-12-17T19:34:05.043Z,21.77
2017-12-17T19:35:05.018Z,21.82
2017-12-17T19:36:04.996Z,21.85
2017-12-17T19:37:04.975Z,21.88
2017-12-17T19:38:04.953Z,21.89
2017-12-17T19:39:04.932Z,21.83
2017-12-17T19:40:04.912Z,21.89
2017-12-17T19:41:04.889Z,21.92
2017-12-17T19:42:04.866Z,22.02
2017-12-17T19:43:04.846Z,21.93
2017-12-17T19:44:04.827Z,21.96
2017-12-17T19:45:04.802Z,21.98
2017-12-17T19:46:04.781Z,22.00
2017-12-17T19:47:04.759Z,22.06
2017-12-17T19:48:04.738Z,21.89
2017-12-17T19:49:04.716Z,21.92
2017-12-17T19:50:04.695Z,21.99
2017-12-17T19:51:04.674Z,22.02
2017-12-17T19:52:04.652Z,21.96
2017-12-17T19:53:04.631Z,21.91
2017-12-17T19:54:04.666Z,21.99
2017-12-17T19:55:04.587Z,21.99
2017-12-17T19:56:04.569Z,21.99
2017-12-17T19:57:04.545Z,21.95
2017-12-17T19:58:04.525Z,22.02
2017-12-17T19:59:04.501Z,22.07
2017-12-17T20:00:04.480Z,22.06
2017-12-17T20:01:04.458Z,21.95
2017-12-17T20:02:04.436Z,22.02
2017-12-17T20:03:04.415Z,22.02
2017-12-17T20:04:04.396Z,22.13
2017-12-17T20:05:04.372Z,22.04
2017-12-17T20:06:04.351Z,21.99
2017-12-17T20:07:04.329Z,22.04
2017-12-17T20:08:04.308Z,22.07
2017-12-17T20:09:04.285Z,22.10
2017-12-17T20:10:04.264Z,22.07
2017-12-17T20:11:04.244Z,22.02
2017-12-17T20:12:04.223Z,21.99
2017-12-17T20:13:04.199Z,22.06
2017-12-17T20:14:04.181Z,22.10
2017-12-17T20:15:04.157Z,22.13
2017-12-17T20:16:04.137Z,22.15
2017-12-17T20:17:04.114Z,22.10
2017-12-17T20:18:04.095Z,22.02
2017-12-17T20:19:04.071Z,22.07
2017-12-17T20:20:04.051Z,22.02
2017-12-17T20:21:04.028Z,21.99
2017-12-17T20:22:04.008Z,22.02
2017-12-17T20:23:03.985Z,22.02
2017-12-17T20:24:03.964Z,22.06
2017-12-17T20:25:03.941Z,21.99
2017-12-17T20:26:03.921Z,22.04
2017-12-17T20:27:03.906Z,21.99
2017-12-17T20:28:03.878Z,21.99
2017-12-17T20:29:03.857Z,21.99
2017-12-17T20:30:03.835Z,22.02
2017-12-17T20:31:03.814Z,21.99
2017-12-17T20:32:03.794Z,21.93
2017-12-17T20:33:03.770Z,21.99
2017-12-17T20:34:03.749Z,22.04
2017-12-17T20:35:03.728Z,21.98
2017-12-17T20:36:03.708Z,22.00
2017-12-17T20:37:03.687Z,21.96
2017-12-17T20:38:03.664Z,21.92
2017-12-17T20:39:03.643Z,21.92
2017-12-17T20:40:03.674Z,22.06
2017-12-17T20:41:03.600Z,21.91
2017-12-17T20:42:03.578Z,21.93
2017-12-17T20:43:03.558Z,22.02
2017-12-17T20:44:03.535Z,22.06
2017-12-17T20:45:03.514Z,21.99
2017-12-17T20:46:03.493Z,21.98
2017-12-17T20:47:03.470Z,21.93
2017-12-17T20:48:03.449Z,22.00
2017-12-17T20:49:03.429Z,22.00
2017-12-17T20:50:03.439Z,22.06
2017-12-17T20:51:03.385Z,21.95
2017-12-17T20:52:03.364Z,22.06
2017-12-17T20:53:03.343Z,22.02
2017-12-17T20:54:03.320Z,21.93
2017-12-17T20:55:03.299Z,21.98
2017-12-17T20:56:03.278Z,21.96
2017-12-17T20:57:03.255Z,22.06
2017-12-17T20:58:03.235Z,22.14
2017-12-17T20:59:03.215Z,22.10
2017-12-17T21:00:03.192Z,22.06
2017-12-17T21:01:03.170Z,22.10
2017-12-17T21:02:03.149Z,21.99
2017-12-17T21:03:03.128Z,21.93
2017-12-17T21:04:03.163Z,21.98
2017-12-17T21:05:03.087Z,22.02
2017-12-17T21:06:03.064Z,22.10
2017-12-17T21:07:03.044Z,22.06
2017-12-17T21:08:03.022Z,22.11
2017-12-17T21:09:03.000Z,22.07
2017-12-17T21:10:03.002Z,21.99
2017-12-17T21:11:02.958Z,21.96
2017-12-17T21:12:02.936Z,21.91
2017-12-17T21:13:02.915Z,21.95
2017-12-17T21:14:02.893Z,21.99
2017-12-17T21:15:02.872Z,21.99
2017-12-17T21:16:02.852Z,21.98
2017-12-17T21:17:02.829Z,22.02
2017-12-17T21:18:02.808Z,21.98
2017-12-17T21:19:02.786Z,21.92
2017-12-17T21:20:02.767Z,22.02
2017-12-17T21:21:02.745Z,21.98
2017-12-17T21:22:02.723Z,22.11
2017-12-17T21:23:02.701Z,22.00
2017-12-17T21:24:02.684Z,22.00
2017-12-17T21:25:02.659Z,21.98
2017-12-17T21:26:02.637Z,21.93
2017-12-17T21:27:02.616Z,22.02
2017-12-17T21:28:02.597Z,21.95
2017-12-17T21:29:02.573Z,22.04
2017-12-17T21:30:02.552Z,21.93
2017-12-17T21:31:02.531Z,21.96
2017-12-17T21:32:02.508Z,21.98
2017-12-17T21:33:02.488Z,21.95
2017-12-17T21:34:02.466Z,21.92
2017-12-17T21:35:02.445Z,21.98
2017-12-17T21:36:02.424Z,21.91
2017-12-17T21:37:02.401Z,21.92
2017-12-17T21:38:02.381Z,21.93
2017-12-17T21:39:02.362Z,21.89
2017-12-17T21:40:02.338Z,21.92
2017-12-17T21:41:02.316Z,21.89
2017-12-17T21:42:02.294Z,21.92
2017-12-17T21:43:02.274Z,21.88
2017-12-17T21:44:02.252Z,21.99
2017-12-17T21:45:02.232Z,21.95
2017-12-17T21:46:02.209Z,21.98
2017-12-17T21:47:02.188Z,21.96
2017-12-17T21:48:02.168Z,21.95
2017-12-17T21:49:02.145Z,21.88
2017-12-17T21:50:02.126Z,21.96
2017-12-17T21:51:02.106Z,21.96
2017-12-17T21:52:02.082Z,21.93
2017-12-17T21:53:02.061Z,21.95
2017-12-17T21:54:02.039Z,21.93
2017-12-17T21:55:02.017Z,21.91
2017-12-17T21:56:01.996Z,21.89
2017-12-17T21:57:01.974Z,21.83
2017-12-17T21:58:01.954Z,21.92
2017-12-17T21:59:01.932Z,21.82
2017-12-17T22:00:01.910Z,21.83
2017-12-17T22:01:01.892Z,21.95
2017-12-17T22:02:01.867Z,21.79
2017-12-17T22:03:01.846Z,21.79
2017-12-17T22:04:01.825Z,21.88
2017-12-17T22:05:01.802Z,21.89
2017-12-17T22:06:01.782Z,21.92
2017-12-17T22:07:01.761Z,21.89
2017-12-17T22:08:01.747Z,21.76
2017-12-17T22:09:01.717Z,21.79
2017-12-17T22:10:01.696Z,21.76
2017-12-17T22:11:01.678Z,21.92
2017-12-17T22:12:01.653Z,21.76
2017-12-17T22:13:01.633Z,21.77
2017-12-17T22:14:01.611Z,21.77
2017-12-17T22:15:01.598Z,21.91
2017-12-17T22:16:01.569Z,21.79
2017-12-17T22:17:01.547Z,21.80
2017-12-17T22:18:01.526Z,21.80
2017-12-17T22:19:01.505Z,21.76
2017-12-17T22:20:01.484Z,21.76
2017-12-17T22:21:01.462Z,21.85
2017-12-17T22:22:01.440Z,21.75
2017-12-17T22:23:01.419Z,21.73
2017-12-17T22:24:01.397Z,21.73
2017-12-17T22:25:01.375Z,21.79
2017-12-17T22:26:01.356Z,21.75
2017-12-17T22:27:01.333Z,21.72
2017-12-17T22:28:01.313Z,21.79
2017-12-17T22:29:01.290Z,21.75
2017-12-17T22:30:01.270Z,21.69
2017-12-17T22:31:01.249Z,21.67
2017-12-17T22:32:01.226Z,21.70
2017-12-17T22:33:01.205Z,21.73
2017-12-17T22:34:01.184Z,21.69
2017-12-17T22:35:01.163Z,21.60
2017-12-17T22:36:01.141Z,21.61
2017-12-17T22:37:01.119Z,21.58
2017-12-17T22:38:01.099Z,21.66
2017-12-17T22:39:01.077Z,21.62
2017-12-17T22:40:01.055Z,21.66
2017-12-17T22:41:01.034Z,21.58
2017-12-17T22:42:01.012Z,21.54
2017-12-17T22:43:00.991Z,21.46
2017-12-17T22:44:00.971Z,21.51
2017-12-17T22:45:00.996Z,21.43
2017-12-17T22:46:00.927Z,21.45
2017-12-17T22:47:00.906Z,21.40
2017-12-17T22:48:00.883Z,21.40
2017-12-17T22:49:00.862Z,21.37
2017-12-17T22:50:00.840Z,21.33
2017-12-17T22:51:00.819Z,21.37
2017-12-17T22:52:00.797Z,21.37
2017-12-17T22:53:00.775Z,21.27
2017-12-17T22:54:00.755Z,21.35
2017-12-17T22:55:00.734Z,21.32
2017-12-17T22:56:00.712Z,21.35
2017-12-17T22:57:00.688Z,21.36
2017-12-17T22:58:00.667Z,21.30
2017-12-17T22:59:00.647Z,21.30
2017-12-17T23:00:00.625Z,21.30
2017-12-17T23:01:00.601Z,21.33
2017-12-17T23:02:00.581Z,21.29
2017-12-17T23:03:00.608Z,21.33
2017-12-17T23:04:00.537Z,21.33
2017-12-17T23:05:00.515Z,21.21
2017-12-17T23:06:00.495Z,21.33
2017-12-17T23:07:00.472Z,21.21
2017-12-17T23:08:00.451Z,21.27
2017-12-17T23:09:00.428Z,21.14
2017-12-17T23:10:00.407Z,21.05
2017-12-17T23:11:00.385Z,21.09
2017-12-17T23:12:00.365Z,21.03
2017-12-17T23:13:00.342Z,21.06
2017-12-17T23:14:00.320Z,21.12
2017-12-17T23:15:00.298Z,21.11
2017-12-17T23:16:00.276Z,21.09
2017-12-17T23:17:00.255Z,21.07
2017-12-17T23:18:00.233Z,21.02
2017-12-17T23:19:00.213Z,20.99
2017-12-17T23:20:00.190Z,21.02
2017-12-17T23:21:00.167Z,21.02
2017-12-17T23:22:00.145Z,20.97
2017-12-17T23:23:00.124Z,20.99
2017-12-17T23:24:00.103Z,20.95
2017-12-17T23:25:00.079Z,20.93
2017-12-17T23:26:00.057Z,20.97
2017-12-17T23:27:00.036Z,20.88
2017-12-17T23:28:00.015Z,20.95
2017-12-17T23:28:59.991Z,20.90
2017-12-17T23:29:59.970Z,20.85
2017-12-17T23:30:59.948Z,20.82
2017-12-17T23:31:59.928Z,20.78
2017-12-17T23:32:59.903Z,20.85
2017-12-17T23:33:59.882Z,20.77
2017-12-17T23:34:59.860Z,20.85
2017-12-17T23:35:59.838Z,20.74
2017-12-17T23:36:59.816Z,20.75
2017-12-17T23:37:59.794Z,20.74
2017-12-17T23:38:59.772Z,20.75
2017-12-17T23:39:59.750Z,20.78
2017-12-17T23:40:59.727Z,20.66
2017-12-17T23:41:59.706Z,20.75
2017-12-17T23:42:59.683Z,20.59
2017-12-17T23:43:59.662Z,20.69
2017-12-17T23:44:59.638Z,20.63
2017-12-17T23:45:59.617Z,20.60
2017-12-17T23:46:59.594Z,20.69
2017-12-17T23:47:59.574Z,20.66